createdAt,value
2018-02-02T00:00:38.024Z,23.65
2018-02-02T00:03:05.850Z,25.42
2018-02-02T00:05:33.106Z,26.35
2018-02-02T00:07:59.392Z,24.42
2018-02-02T00:10:25.606Z,27.77
2018-02-02T00:12:52.211Z,25.88
2018-02-02T00:15:19.178Z,23.15
2018-02-02T00:17:46.114Z,22.25
2018-02-02T00:20:13.140Z,25.27
2018-02-02T00:22:39.525Z,25.12
2018-02-02T00:25:06.332Z,22.52
2018-02-02T00:27:33.269Z,25.52
2018-02-02T00:30:00.240Z,24.37
2018-02-02T00:32:27.000Z,22.98
2018-02-02T00:34:53.438Z,19.75
2018-02-02T00:37:20.454Z,21.48
2018-02-02T00:39:46.956Z,25.00
2018-02-02T00:42:13.944Z,21.55
2018-02-02T00:44:40.711Z,26.58
2018-02-02T00:47:07.442Z,20.45
2018-02-02T00:49:33.682Z,22.48
2018-02-02T00:52:01.083Z,20.23
2018-02-02T00:54:28.480Z,21.17
2018-02-02T00:56:56.280Z,23.35
2018-02-02T00:59:23.700Z,24.00
2018-02-02T01:01:49.967Z,19.30
2018-02-02T01:04:16.207Z,23.58
2018-02-02T01:06:43.174Z,18.27
2018-02-02T01:09:09.424Z,22.35
2018-02-02T01:11:35.637Z,22.73
2018-02-02T01:14:01.854Z,25.48
2018-02-02T01:16:28.258Z,24.05
2018-02-02T01:18:54.494Z,25.12
2018-02-02T01:21:22.387Z,26.62
2018-02-02T01:23:49.310Z,23.85
2018-02-02T01:26:16.282Z,23.55
2018-02-02T01:28:43.516Z,22.17
2018-02-02T01:31:10.683Z,25.52
2018-02-02T01:33:36.967Z,22.50
2018-02-02T01:36:03.210Z,26.27
2018-02-02T01:38:30.833Z,26.20
2018-02-02T01:40:57.474Z,21.98
2018-02-02T01:43:23.703Z,22.08
2018-02-02T01:45:50.048Z,23.77
2018-02-02T01:48:21.126Z,24.40
2018-02-02T01:50:49.361Z,19.60
2018-02-02T01:53:15.616Z,20.83
2018-02-02T01:55:42.771Z,23.83
2018-02-02T01:58:10.744Z,22.83
2018-02-02T02:00:38.236Z,28.35
2018-02-02T02:03:04.493Z,26.80
2018-02-02T02:05:30.967Z,25.65
2018-02-02T02:07:57.825Z,24.58
2018-02-02T02:10:24.862Z,23.83
2018-02-02T02:12:51.335Z,23.05
2018-02-02T02:15:18.359Z,19.00
2018-02-02T02:17:45.010Z,25.85
2018-02-02T02:20:11.227Z,23.90
2018-02-02T02:22:37.464Z,25.23
2018-02-02T02:25:03.711Z,25.60
2018-02-02T02:27:30.538Z,19.37
2018-02-02T02:29:56.912Z,20.65
2018-02-02T02:32:24.482Z,28.65
2018-02-02T02:34:50.890Z,25.95
2018-02-02T02:37:17.740Z,31.60
2018-02-02T02:39:44.897Z,28.50
2018-02-02T02:42:12.683Z,29.80
2018-02-02T02:44:39.929Z,26.60
2018-02-02T02:47:06.459Z,25.42
2018-02-02T02:49:33.973Z,22.50
2018-02-02T02:52:00.643Z,25.30
2018-02-02T02:54:27.720Z,24.48
2018-02-02T02:56:54.892Z,21.52
2018-02-02T02:59:22.248Z,28.58
2018-02-02T03:01:50.460Z,24.33
2018-02-02T03:04:17.435Z,25.00
2018-02-02T03:06:43.642Z,23.33
2018-02-02T03:09:11.710Z,23.48
2018-02-02T03:11:39.631Z,24.45
2018-02-02T03:14:06.954Z,31.17
2018-02-02T03:16:34.131Z,29.05
2018-02-02T03:19:01.004Z,33.03
2018-02-02T03:21:27.460Z,28.62
2018-02-02T03:23:55.438Z,33.30
2018-02-02T03:26:22.407Z,27.62
2018-02-02T03:28:49.821Z,34.35
2018-02-02T03:31:16.044Z,29.20
2018-02-02T03:33:42.835Z,32.85
2018-02-02T03:36:09.449Z,29.33
2018-02-02T03:38:36.989Z,26.77
2018-02-02T03:41:03.755Z,30.98
2018-02-02T03:43:30.176Z,23.80
2018-02-02T03:45:57.138Z,26.02
2018-02-02T03:48:23.598Z,30.20
2018-02-02T03:50:50.468Z,28.90
2018-02-02T03:53:16.680Z,23.58
2018-02-02T03:55:43.611Z,25.80
2018-02-02T03:58:09.984Z,30.62
2018-02-02T04:00:36.893Z,23.92
2018-02-02T04:03:03.862Z,26.05
2018-02-02T04:05:30.061Z,31.83
2018-02-02T04:07:56.943Z,22.13
2018-02-02T04:10:23.150Z,27.10
2018-02-02T04:12:49.667Z,24.92
2018-02-02T04:15:16.711Z,28.55
2018-02-02T04:17:43.144Z,25.77
2018-02-02T04:20:09.798Z,26.35
2018-02-02T04:22:37.270Z,22.08
2018-02-02T04:25:04.313Z,28.15
2018-02-02T04:27:31.028Z,26.25
2018-02-02T04:29:58.245Z,27.55
2018-02-02T04:32:25.286Z,25.88
2018-02-02T04:35:06.955Z,25.88
2018-02-02T04:37:34.234Z,22.73
2018-02-02T04:40:01.404Z,21.85
2018-02-02T04:42:28.003Z,23.67
2018-02-02T04:44:55.250Z,35.50
2018-02-02T04:47:22.196Z,28.77
2018-02-02T04:49:49.170Z,25.70
2018-02-02T04:52:16.384Z,27.58
2018-02-02T04:54:42.588Z,27.55
2018-02-02T04:57:09.361Z,22.13
2018-02-02T04:59:36.546Z,24.85
2018-02-02T05:02:04.596Z,22.23
2018-02-02T05:04:31.278Z,25.00
2018-02-02T05:06:58.804Z,26.12
2018-02-02T05:09:25.525Z,30.92
2018-02-02T05:11:53.084Z,26.65
2018-02-02T05:14:21.181Z,24.70
2018-02-02T05:16:48.027Z,29.00
2018-02-02T05:19:15.187Z,27.05
2018-02-02T05:21:42.126Z,28.73
2018-02-02T05:24:08.993Z,32.58
2018-02-02T05:26:35.759Z,31.62
2018-02-02T05:29:03.476Z,31.98
2018-02-02T05:31:29.980Z,35.67
2018-02-02T05:33:56.714Z,31.87
2018-02-02T05:36:23.005Z,29.02
2018-02-02T05:38:49.867Z,31.58
2018-02-02T05:41:16.101Z,25.23
2018-02-02T05:43:43.577Z,31.25
2018-02-02T05:46:10.571Z,28.02
2018-02-02T05:48:36.815Z,27.30
2018-02-02T05:51:03.604Z,24.35
2018-02-02T05:53:29.903Z,24.90
2018-02-02T05:55:56.891Z,23.17
2018-02-02T05:58:23.187Z,24.65
2018-02-02T06:00:50.773Z,28.90
2018-02-02T06:03:17.179Z,27.27
2018-02-02T06:05:45.774Z,27.23
2018-02-02T06:08:12.992Z,25.77
2018-02-02T06:10:39.768Z,28.23
2018-02-02T06:13:06.052Z,25.37
2018-02-02T06:15:32.439Z,31.75
2018-02-02T06:17:58.671Z,26.87
2018-02-02T06:20:25.886Z,30.62
2018-02-02T06:22:53.453Z,28.45
2018-02-02T06:25:19.820Z,27.52
2018-02-02T06:27:46.027Z,24.60
2018-02-02T06:30:12.419Z,22.27
2018-02-02T06:32:38.952Z,25.88
2018-02-02T06:35:05.951Z,30.45
2018-02-02T06:37:32.219Z,27.87
2018-02-02T06:39:58.427Z,32.30
2018-02-02T06:42:24.882Z,29.83
2018-02-02T06:44:51.494Z,32.60
2018-02-02T06:47:17.736Z,34.40
2018-02-02T06:49:44.941Z,37.45
2018-02-02T06:52:11.349Z,35.45
2018-02-02T06:54:39.069Z,35.05
2018-02-02T06:57:06.281Z,32.65
2018-02-02T06:59:33.077Z,30.20
2018-02-02T07:02:00.514Z,30.95
2018-02-02T07:04:27.635Z,27.58
2018-02-02T07:06:53.909Z,25.00
2018-02-02T07:09:20.540Z,22.20
2018-02-02T07:11:48.064Z,23.00
2018-02-02T07:14:14.262Z,18.67
2018-02-02T07:16:41.850Z,17.73
2018-02-02T07:19:08.740Z,22.08
2018-02-02T07:21:35.930Z,19.85
2018-02-02T07:24:03.550Z,17.17
2018-02-02T07:26:29.746Z,17.90
2018-02-02T07:28:56.196Z,20.10
2018-02-02T07:31:23.578Z,19.15
2018-02-02T07:33:50.946Z,18.70
2018-02-02T07:36:19.933Z,19.50
2018-02-02T07:38:47.033Z,17.42
2018-02-02T07:41:15.069Z,18.73
2018-02-02T07:43:41.973Z,21.80
2018-02-02T07:46:08.356Z,17.62
2018-02-02T07:48:34.766Z,20.40
2018-02-02T07:51:01.764Z,17.35
2018-02-02T07:53:28.094Z,18.45
2018-02-02T07:55:55.147Z,19.48
2018-02-02T07:58:21.973Z,19.08
2018-02-02T08:00:54.952Z,21.55
2018-02-02T08:03:21.220Z,24.37
2018-02-02T08:05:48.977Z,20.55
2018-02-02T08:08:16.466Z,19.70
2018-02-02T08:10:43.916Z,21.35
2018-02-02T08:13:10.987Z,22.48
2018-02-02T08:15:37.245Z,15.80
2018-02-02T08:18:04.359Z,19.17
2018-02-02T08:20:30.704Z,17.65
2018-02-02T08:22:57.911Z,19.20
2018-02-02T08:25:24.647Z,19.42
2018-02-02T08:27:50.903Z,20.62
2018-02-02T08:30:18.076Z,18.33
2018-02-02T08:32:44.331Z,17.92
2018-02-02T08:35:10.570Z,14.93
2018-02-02T08:37:37.938Z,17.87
2018-02-02T08:40:04.700Z,15.13
2018-02-02T08:42:32.450Z,15.23
2018-02-02T08:44:59.405Z,13.62
2018-02-02T08:47:26.785Z,12.10
2018-02-02T08:49:54.444Z,13.02
2018-02-02T08:52:21.234Z,22.02
2018-02-02T08:54:47.438Z,13.05
2018-02-02T08:57:13.665Z,11.25
2018-02-02T08:59:40.639Z,16.00
2018-02-02T09:02:06.955Z,13.50
2018-02-02T09:04:34.475Z,9.82
2018-02-02T09:07:01.072Z,14.05
2018-02-02T09:09:28.059Z,15.63
2018-02-02T09:11:55.295Z,14.60
2018-02-02T09:14:21.594Z,9.43
2018-02-02T09:16:48.124Z,13.45
2018-02-02T09:19:15.141Z,14.05
2018-02-02T09:21:52.227Z,11.00
2018-02-02T09:24:18.746Z,9.32
2018-02-02T09:26:46.197Z,11.98
2018-02-02T09:29:13.737Z,16.45
2018-02-02T09:31:40.507Z,8.80
2018-02-02T09:34:06.716Z,13.60
2018-02-02T09:36:33.013Z,12.73
2018-02-02T09:38:59.905Z,10.85
2018-02-02T09:41:26.121Z,10.00
2018-02-02T09:43:53.246Z,11.07
2018-02-02T09:46:20.736Z,11.48
2018-02-02T09:48:47.555Z,12.55
2018-02-02T09:51:14.417Z,10.45
2018-02-02T09:53:40.683Z,11.52
2018-02-02T09:56:07.694Z,12.35
2018-02-02T09:58:34.569Z,12.50
2018-02-02T10:01:01.179Z,11.90
2018-02-02T10:03:28.582Z,11.20
2018-02-02T10:05:55.550Z,7.87
2018-02-02T10:08:21.802Z,11.68
2018-02-02T10:10:48.490Z,10.18
2018-02-02T10:13:15.974Z,10.02
2018-02-02T10:15:42.381Z,10.55
2018-02-02T10:18:10.061Z,10.32
2018-02-02T10:20:36.306Z,8.85
2018-02-02T10:23:02.906Z,10.70
2018-02-02T10:25:29.869Z,8.38
2018-02-02T10:27:57.599Z,9.25
2018-02-02T10:30:25.297Z,10.55
2018-02-02T10:32:52.267Z,10.18
2018-02-02T10:35:19.498Z,10.95
2018-02-02T10:37:47.040Z,9.30
2018-02-02T10:40:14.015Z,14.05
2018-02-02T10:42:40.749Z,10.85
2018-02-02T10:45:07.598Z,7.37
2018-02-02T10:47:33.862Z,9.57
2018-02-02T10:50:01.232Z,7.57
2018-02-02T10:52:27.462Z,8.18
2018-02-02T10:54:53.948Z,8.63
2018-02-02T10:57:20.826Z,6.10
2018-02-02T10:59:47.889Z,9.73
2018-02-02T11:02:20.960Z,8.05
2018-02-02T11:04:47.854Z,8.23
2018-02-02T11:07:14.067Z,6.93
2018-02-02T11:09:41.022Z,8.07
2018-02-02T11:12:07.750Z,7.50
2018-02-02T11:14:34.977Z,6.18
2018-02-02T11:17:01.967Z,7.18
2018-02-02T11:19:28.242Z,7.30
2018-02-02T11:21:54.571Z,6.10
2018-02-02T11:24:21.749Z,5.72
2018-02-02T11:26:48.761Z,6.18
2018-02-02T11:29:15.750Z,6.93
2018-02-02T11:31:43.173Z,5.35
2018-02-02T11:34:10.519Z,7.20
2018-02-02T11:36:36.717Z,5.25
2018-02-02T11:39:02.987Z,5.97
2018-02-02T11:41:29.639Z,5.47
2018-02-02T11:43:56.641Z,6.03
2018-02-02T11:46:23.393Z,5.43
2018-02-02T11:48:49.826Z,5.93
2018-02-02T11:51:16.701Z,5.22
2018-02-02T11:53:42.943Z,5.43
2018-02-02T11:56:09.893Z,5.15
2018-02-02T11:58:36.859Z,5.85
2018-02-02T12:01:03.704Z,5.12
2018-02-02T12:06:03.647Z,6.65
2018-02-02T12:08:30.202Z,7.90
2018-02-02T12:10:58.056Z,5.87
2018-02-02T12:13:24.290Z,7.00
2018-02-02T12:15:50.653Z,6.25
2018-02-02T12:18:17.214Z,5.28
2018-02-02T12:20:43.968Z,5.65
2018-02-02T12:23:17.725Z,6.07
2018-02-02T12:25:47.835Z,5.97
2018-02-02T12:28:20.631Z,6.10
2018-02-02T12:30:49.756Z,6.70
2018-02-02T12:33:22.046Z,6.90
2018-02-02T12:36:04.194Z,6.12
2018-02-02T12:38:31.048Z,6.10
2018-02-02T12:40:58.098Z,5.82
2018-02-02T12:43:25.746Z,6.00
2018-02-02T12:45:51.974Z,5.43
2018-02-02T12:48:30.523Z,5.37
2018-02-02T12:50:59.662Z,6.30
2018-02-02T12:53:26.325Z,5.95
2018-02-02T12:55:52.793Z,4.82
2018-02-02T12:58:20.192Z,4.35
2018-02-02T13:00:47.409Z,3.22
2018-02-02T13:03:15.130Z,5.10
2018-02-02T13:05:43.055Z,4.32
2018-02-02T13:08:09.287Z,3.40
2018-02-02T13:10:35.777Z,6.35
2018-02-02T13:13:03.207Z,3.85
2018-02-02T13:15:30.255Z,6.10
2018-02-02T13:17:56.731Z,4.18
2018-02-02T13:20:24.428Z,2.87
2018-02-02T13:22:51.446Z,2.72
2018-02-02T13:25:17.644Z,3.12
2018-02-02T13:27:45.861Z,3.72
2018-02-02T13:30:12.983Z,3.22
2018-02-02T13:32:39.193Z,2.92
2018-02-02T13:35:07.228Z,3.20
2018-02-02T13:37:34.223Z,4.75
2018-02-02T13:40:00.442Z,3.37
2018-02-02T13:42:28.017Z,6.35
2018-02-02T13:44:54.828Z,4.35
2018-02-02T13:47:21.825Z,3.30
2018-02-02T13:49:48.223Z,3.08
2018-02-02T13:52:15.238Z,5.80
2018-02-02T13:54:41.693Z,3.33
2018-02-02T13:57:09.322Z,3.60
2018-02-02T13:59:36.536Z,6.62
2018-02-02T14:02:03.826Z,3.05
2018-02-02T14:04:30.383Z,3.85
2018-02-02T14:06:56.744Z,2.92
2018-02-02T14:09:24.140Z,3.22
2018-02-02T14:11:50.733Z,5.37
2018-02-02T14:14:16.975Z,3.12
2018-02-02T14:16:43.196Z,2.45
2018-02-02T14:19:09.502Z,4.10
2018-02-02T14:21:36.538Z,3.33
2018-02-02T14:24:03.641Z,4.05
2018-02-02T14:26:29.974Z,2.65
2018-02-02T14:28:57.583Z,2.50
2018-02-02T14:31:25.256Z,4.97
2018-02-02T14:33:52.555Z,3.03
2018-02-02T14:36:19.602Z,7.10
2018-02-02T14:38:46.357Z,4.72
2018-02-02T14:41:12.750Z,6.55
2018-02-02T14:43:38.980Z,4.43
2018-02-02T14:46:05.208Z,3.75
2018-02-02T14:48:31.427Z,3.60
2018-02-02T14:50:58.126Z,2.70
2018-02-02T14:53:24.757Z,3.12
2018-02-02T14:55:52.283Z,4.10
2018-02-02T14:58:18.593Z,2.40
2018-02-02T15:00:45.165Z,2.40
2018-02-02T15:03:12.199Z,2.70
2018-02-02T15:05:39.067Z,3.75
2018-02-02T15:08:05.290Z,3.30
2018-02-02T15:10:31.595Z,2.58
2018-02-02T15:13:01.192Z,4.87
2018-02-02T15:15:27.415Z,2.60
2018-02-02T15:17:53.937Z,4.07
2018-02-02T15:20:20.573Z,6.57
2018-02-02T15:22:50.011Z,4.50
2018-02-02T15:25:17.065Z,4.95
2018-02-02T15:27:43.355Z,5.05
2018-02-02T15:30:09.608Z,4.03
2018-02-02T15:32:36.021Z,3.05
2018-02-02T15:35:03.109Z,9.52
2018-02-02T15:37:29.991Z,2.65
2018-02-02T15:39:56.978Z,3.03
2018-02-02T15:42:23.528Z,4.35
2018-02-02T15:44:50.494Z,8.40
2018-02-02T15:47:17.606Z,4.22
2018-02-02T15:49:44.436Z,6.20
2018-02-02T15:52:10.646Z,5.10
2018-02-02T15:54:37.939Z,6.78
2018-02-02T15:57:04.170Z,7.10
2018-02-02T15:59:30.995Z,13.85
2018-02-02T16:01:57.341Z,9.85
2018-02-02T16:04:23.536Z,7.03
2018-02-02T16:06:49.899Z,10.25
2018-02-02T16:09:16.182Z,12.20
2018-02-02T16:11:43.218Z,8.00
2018-02-02T16:14:10.365Z,8.85
2018-02-02T16:16:37.433Z,10.98
2018-02-02T16:19:04.293Z,10.18
2018-02-02T16:21:30.528Z,14.93
2018-02-02T16:23:56.881Z,14.48
2018-02-02T16:26:23.496Z,16.62
2018-02-02T16:28:50.544Z,14.18
2018-02-02T16:31:16.792Z,13.48
2018-02-02T16:33:43.501Z,14.50
2018-02-02T16:36:09.880Z,37.55
2018-02-02T16:38:36.766Z,13.30
2018-02-02T16:41:03.558Z,8.88
2018-02-02T16:43:31.025Z,7.07
2018-02-02T16:45:57.501Z,7.78
2018-02-02T16:48:24.535Z,7.65
2018-02-02T16:50:51.661Z,5.75
2018-02-02T16:53:18.392Z,7.30
2018-02-02T16:55:44.642Z,8.05
2018-02-02T16:58:11.610Z,10.82
2018-02-02T17:00:38.697Z,8.13
2018-02-02T17:03:05.054Z,9.48
2018-02-02T17:05:32.603Z,15.05
2018-02-02T17:07:59.259Z,15.15
2018-02-02T17:10:25.649Z,10.23
2018-02-02T17:12:51.865Z,12.88
2018-02-02T17:15:18.395Z,15.38
2018-02-02T17:17:45.045Z,15.52
2018-02-02T17:20:11.290Z,9.55
2018-02-02T17:22:38.097Z,13.68
2018-02-02T17:25:04.296Z,8.38
2018-02-02T17:27:31.704Z,16.52
2018-02-02T17:29:58.685Z,12.80
2018-02-02T17:32:25.637Z,10.98
2018-02-02T17:34:52.587Z,10.95
2018-02-02T17:37:19.887Z,13.43
2018-02-02T17:39:46.115Z,12.27
2018-02-02T17:42:12.370Z,14.23
2018-02-02T17:44:38.686Z,12.63
2018-02-02T17:47:04.915Z,15.32
2018-02-02T17:49:32.111Z,20.48
2018-02-02T17:51:59.933Z,14.57
2018-02-02T17:54:26.186Z,16.48
2018-02-02T17:56:53.431Z,16.45
2018-02-02T17:59:20.533Z,11.80
2018-02-02T18:01:48.045Z,15.57
2018-02-02T18:04:15.046Z,13.07
2018-02-02T18:06:41.373Z,10.95
2018-02-02T18:09:07.582Z,13.18
2018-02-02T18:11:34.707Z,19.95
2018-02-02T18:14:01.454Z,15.25
2018-02-02T18:16:27.700Z,10.70
2018-02-02T18:18:53.916Z,12.07
2018-02-02T18:21:21.204Z,10.70
2018-02-02T18:23:48.064Z,12.30
2018-02-02T18:26:15.074Z,11.68
2018-02-02T18:28:41.282Z,13.23
2018-02-02T18:31:07.500Z,13.30
2018-02-02T18:33:33.780Z,12.30
2018-02-02T18:36:00.567Z,15.60
2018-02-02T18:38:28.251Z,18.40
2018-02-02T18:40:55.342Z,13.45
2018-02-02T18:43:21.833Z,13.75
2018-02-02T18:45:49.425Z,13.88
2018-02-02T18:48:15.695Z,12.88
2018-02-02T18:50:43.609Z,12.95
2018-02-02T18:53:10.825Z,12.45
2018-02-02T18:55:37.080Z,9.07
2018-02-02T18:58:04.059Z,11.98
2018-02-02T19:00:30.514Z,14.52
2018-02-02T19:02:57.457Z,15.98
2018-02-02T19:05:25.009Z,12.13
2018-02-02T19:07:52.210Z,15.43
2018-02-02T19:10:19.079Z,16.92
2018-02-02T19:12:45.307Z,12.68
2018-02-02T19:15:11.517Z,12.43
2018-02-02T19:17:37.827Z,9.85
2018-02-02T19:20:04.055Z,11.80
2018-02-02T19:22:30.380Z,12.02
2018-02-02T19:24:57.509Z,11.20
2018-02-02T19:27:24.584Z,16.85
2018-02-02T19:29:51.806Z,15.60
2018-02-02T19:32:19.091Z,21.65
2018-02-02T19:34:46.816Z,14.73
2018-02-02T19:37:14.048Z,20.73
2018-02-02T19:39:41.337Z,17.90
2018-02-02T19:42:08.452Z,18.42
2018-02-02T19:44:35.841Z,15.38
2018-02-02T19:47:02.077Z,17.15
2018-02-02T19:49:28.315Z,14.02
2018-02-02T19:51:55.111Z,13.45
2018-02-02T19:54:21.342Z,16.37
2018-02-02T19:56:48.883Z,18.15
2018-02-02T19:59:15.107Z,14.63
2018-02-02T20:01:41.304Z,13.32
2018-02-02T20:04:08.388Z,14.43
2018-02-02T20:06:36.038Z,13.57
2018-02-02T20:09:02.628Z,14.93
2018-02-02T20:11:28.846Z,12.02
2018-02-02T20:13:56.386Z,14.52
2018-02-02T20:16:23.961Z,11.88
2018-02-02T20:18:50.979Z,9.65
2018-02-02T20:21:18.459Z,9.52
2018-02-02T20:23:45.829Z,10.02
2018-02-02T20:26:13.571Z,13.35
2018-02-02T20:28:41.062Z,14.48
2018-02-02T20:31:08.243Z,11.30
2018-02-02T20:33:35.540Z,10.23
2018-02-02T20:36:02.889Z,9.48
2018-02-02T20:38:30.122Z,15.40
2018-02-02T20:40:57.376Z,12.73
2018-02-02T20:43:24.469Z,11.32
2018-02-02T20:45:51.256Z,12.02
2018-02-02T20:48:18.817Z,11.98
2018-02-02T20:50:45.340Z,11.50
2018-02-02T20:53:12.612Z,13.60
2018-02-02T20:55:38.838Z,21.70
2018-02-02T20:58:05.121Z,18.23
2018-02-02T21:00:32.019Z,15.82
2018-02-02T21:02:59.439Z,14.43
2018-02-02T21:05:27.143Z,13.93
2018-02-02T21:07:54.687Z,13.07
2018-02-02T21:10:20.921Z,14.00
2018-02-02T21:12:47.693Z,15.27
2018-02-02T21:15:15.104Z,19.23
2018-02-02T21:17:42.384Z,15.88
2018-02-02T21:20:09.573Z,15.82
2018-02-02T21:22:36.436Z,16.90
2018-02-02T21:25:02.904Z,15.40
2018-02-02T21:27:30.379Z,12.18
2018-02-02T21:29:57.261Z,10.55
2018-02-02T21:32:24.490Z,13.68
2018-02-02T21:34:50.721Z,8.82
2018-02-02T21:37:17.308Z,12.40
2018-02-02T21:39:43.926Z,10.70
2018-02-02T21:42:11.573Z,12.05
2018-02-02T21:44:37.789Z,10.18
2018-02-02T21:47:04.658Z,14.68
2018-02-02T21:49:30.876Z,14.10
2018-02-02T21:51:57.605Z,12.10
2018-02-02T21:54:23.806Z,10.80
2018-02-02T21:56:50.142Z,14.07
2018-02-02T21:59:16.926Z,11.15
2018-02-02T22:01:43.910Z,13.85
2018-02-02T22:04:10.937Z,12.25
2018-02-02T22:06:37.368Z,13.85
2018-02-02T22:09:04.486Z,11.38
2018-02-02T22:11:31.957Z,11.35
2018-02-02T22:13:59.221Z,13.65
2018-02-02T22:16:25.571Z,12.15
2018-02-02T22:18:52.526Z,11.68
2018-02-02T22:21:20.563Z,13.35
2018-02-02T22:23:48.037Z,10.68
2018-02-02T22:26:15.029Z,12.35
2018-02-02T22:28:42.246Z,12.48
2018-02-02T22:31:09.371Z,12.25
2018-02-02T22:33:36.593Z,13.38
2018-02-02T22:36:04.183Z,12.23
2018-02-02T22:38:30.598Z,11.73
2018-02-02T22:40:56.963Z,15.05
2018-02-02T22:43:24.075Z,12.35
2018-02-02T22:45:50.814Z,12.77
2018-02-02T22:48:17.611Z,11.70
2018-02-02T22:50:44.299Z,15.25
2018-02-02T22:53:11.868Z,13.23
2018-02-02T22:55:38.832Z,9.88
2018-02-02T22:58:06.750Z,10.68
2018-02-02T23:00:33.007Z,11.05
2018-02-02T23:02:59.598Z,13.30
2018-02-02T23:05:26.946Z,13.60
2018-02-02T23:07:54.086Z,9.35
2018-02-02T23:10:20.581Z,9.63
2018-02-02T23:12:48.205Z,10.30
2018-02-02T23:15:14.572Z,10.52
2018-02-02T23:17:41.912Z,11.98
2018-02-02T23:20:08.704Z,10.13
2018-02-02T23:22:35.470Z,10.57
2018-02-02T23:25:02.287Z,12.30
2018-02-02T23:27:29.334Z,13.20
2018-02-02T23:29:55.574Z,13.75
2018-02-02T23:32:21.901Z,17.67
2018-02-02T23:34:48.123Z,14.15
2018-02-02T23:37:15.168Z,15.65
2018-02-02T23:39:42.961Z,10.23
2018-02-02T23:42:09.159Z,16.08
2018-02-02T23:44:35.401Z,11.05
2018-02-02T23:47:02.141Z,12.88
2018-02-02T23:49:29.034Z,15.13
2018-02-02T23:51:57.056Z,16.52
2018-02-02T23:54:23.283Z,14.15
2018-02-02T23:56:50.118Z,19.42
2018-02-02T23:59:16.339Z,17.55
